Terminal Aerodrome Forecast
Issued by NWS

Home | Current Version | Previous Version | Text Only | Print | Product List | Glossary Off
Versions: 1 2 3 4 5 6 7 8 9 10 11 12

000
FTUS43 KMPX 291134
TAFAXN
TAF
KAXN 291134Z 2912/3012 29004KT P6SM SKC
     FM291500 31009KT P6SM FEW050
     FM291800 31012KT P6SM -SHRA SCT050 BKN120
      TEMPO 2919/2923 4SM -TSRA BKN040CB
     FM292300 32009KT P6SM SCT120
     FM300300 33005KT P6SM SKC=

USA.gov is the U.S. government's official web portal to all federal, state and local government web resources and services.